sensor_id;sensor_type;location;lat;lon;timestamp;temperature;humidity
18446;DHT22;9352;50.888;4.466;2022-12-07T00:01:27;6.20;99.90
18446;DHT22;9352;50.888;4.466;2022-12-07T00:03:56;6.30;99.90
18446;DHT22;9352;50.888;4.466;2022-12-07T00:06:29;6.20;99.90
18446;DHT22;9352;50.888;4.466;2022-12-07T00:08:56;6.10;99.90
18446;DHT22;9352;50.888;4.466;2022-12-07T00:11:24;6.00;99.90
18446;DHT22;9352;50.888;4.466;2022-12-07T00:13:53;5.90;99.90
18446;DHT22;9352;50.888;4.466;2022-12-07T00:16:23;5.80;99.90
18446;DHT22;9352;50.888;4.466;2022-12-07T00:18:50;5.80;99.90
18446;DHT22;9352;50.888;4.466;2022-12-07T00:21:18;5.70;99.90
18446;DHT22;9352;50.888;4.466;2022-12-07T00:23:47;5.70;99.90
18446;DHT22;9352;50.888;4.466;2022-12-07T00:26:16;5.70;99.90
18446;DHT22;9352;50.888;4.466;2022-12-07T00:28:46;5.60;99.90
18446;DHT22;9352;50.888;4.466;2022-12-07T00:31:14;5.60;99.90
18446;DHT22;9352;50.888;4.466;2022-12-07T00:33:41;5.50;99.90
18446;DHT22;9352;50.888;4.466;2022-12-07T00:36:11;5.50;99.90
18446;DHT22;9352;50.888;4.466;2022-12-07T00:38:39;5.50;99.90
18446;DHT22;9352;50.888;4.466;2022-12-07T00:41:09;5.50;99.90
18446;DHT22;9352;50.888;4.466;2022-12-07T00:43:36;5.40;99.90
18446;DHT22;9352;50.888;4.466;2022-12-07T00:46:04;5.40;99.90
18446;DHT22;9352;50.888;4.466;2022-12-07T00:48:31;5.30;99.90
18446;DHT22;9352;50.888;4.466;2022-12-07T00:50:58;5.30;99.90
18446;DHT22;9352;50.888;4.466;2022-12-07T00:53:27;5.30;99.90
18446;DHT22;9352;50.888;4.466;2022-12-07T00:55:54;5.30;99.90
18446;DHT22;9352;50.888;4.466;2022-12-07T00:58:21;5.20;99.90
18446;DHT22;9352;50.888;4.466;2022-12-07T01:00:52;5.20;99.90
18446;DHT22;9352;50.888;4.466;2022-12-07T01:03:20;5.20;99.90
18446;DHT22;9352;50.888;4.466;2022-12-07T01:05:51;5.20;99.90
18446;DHT22;9352;50.888;4.466;2022-12-07T01:08:18;5.20;99.90
18446;DHT22;9352;50.888;4.466;2022-12-07T01:10:46;5.20;99.90
18446;DHT22;9352;50.888;4.466;2022-12-07T01:13:13;5.20;99.90
18446;DHT22;9352;50.888;4.466;2022-12-07T01:15:40;5.20;99.90
18446;DHT22;9352;50.888;4.466;2022-12-07T01:18:08;5.10;99.90
18446;DHT22;9352;50.888;4.466;2022-12-07T01:20:37;5.10;99.90
18446;DHT22;9352;50.888;4.466;2022-12-07T01:23:04;5.10;99.90
18446;DHT22;9352;50.888;4.466;2022-12-07T01:25:31;5.00;99.90
18446;DHT22;9352;50.888;4.466;2022-12-07T01:27:58;5.00;99.90
18446;DHT22;9352;50.888;4.466;2022-12-07T01:30:25;4.90;99.90
18446;DHT22;9352;50.888;4.466;2022-12-07T01:32:52;4.90;99.90
18446;DHT22;9352;50.888;4.466;2022-12-07T01:35:19;5.00;99.90
18446;DHT22;9352;50.888;4.466;2022-12-07T01:37:47;5.00;99.90
18446;DHT22;9352;50.888;4.466;2022-12-07T01:40:14;5.00;99.90
18446;DHT22;9352;50.888;4.466;2022-12-07T01:42:41;5.10;99.90
18446;DHT22;9352;50.888;4.466;2022-12-07T01:48:13;5.00;99.90
18446;DHT22;9352;50.888;4.466;2022-12-07T01:50:42;5.00;99.90
18446;DHT22;9352;50.888;4.466;2022-12-07T01:53:12;5.10;99.90
18446;DHT22;9352;50.888;4.466;2022-12-07T01:55:42;5.20;99.90
18446;DHT22;9352;50.888;4.466;2022-12-07T01:58:11;5.20;99.90
18446;DHT22;9352;50.888;4.466;2022-12-07T02:00:39;5.30;99.90
18446;DHT22;9352;50.888;4.466;2022-12-07T02:03:10;5.30;99.90
18446;DHT22;9352;50.888;4.466;2022-12-07T02:05:40;5.40;99.90
18446;DHT22;9352;50.888;4.466;2022-12-07T02:08:10;5.40;99.90
18446;DHT22;9352;50.888;4.466;2022-12-07T02:10:38;5.50;99.90
18446;DHT22;9352;50.888;4.466;2022-12-07T02:13:09;5.50;99.90
18446;DHT22;9352;50.888;4.466;2022-12-07T02:15:59;5.50;99.90
18446;DHT22;9352;50.888;4.466;2022-12-07T02:18:44;5.60;99.90
18446;DHT22;9352;50.888;4.466;2022-12-07T02:21:16;5.60;99.90
18446;DHT22;9352;50.888;4.466;2022-12-07T02:27:11;5.60;99.90
18446;DHT22;9352;50.888;4.466;2022-12-07T02:29:49;5.60;99.90
18446;DHT22;9352;50.888;4.466;2022-12-07T02:32:23;5.70;99.90
18446;DHT22;9352;50.888;4.466;2022-12-07T02:34:55;5.60;99.90
18446;DHT22;9352;50.888;4.466;2022-12-07T02:37:34;5.60;99.90
18446;DHT22;9352;50.888;4.466;2022-12-07T02:40:09;5.70;99.90
18446;DHT22;9352;50.888;4.466;2022-12-07T02:42:40;5.70;99.90
18446;DHT22;9352;50.888;4.466;2022-12-07T02:45:10;5.60;99.90
18446;DHT22;9352;50.888;4.466;2022-12-07T02:47:40;5.60;99.90
18446;DHT22;9352;50.888;4.466;2022-12-07T02:50:08;5.50;99.90
18446;DHT22;9352;50.888;4.466;2022-12-07T02:52:35;5.40;99.90
18446;DHT22;9352;50.888;4.466;2022-12-07T02:55:03;5.40;99.90
18446;DHT22;9352;50.888;4.466;2022-12-07T02:57:45;5.30;99.90
18446;DHT22;9352;50.888;4.466;2022-12-07T03:00:19;5.20;99.90
18446;DHT22;9352;50.888;4.466;2022-12-07T03:02:53;5.20;99.90
18446;DHT22;9352;50.888;4.466;2022-12-07T03:08:44;5.10;99.90
18446;DHT22;9352;50.888;4.466;2022-12-07T03:11:14;5.00;99.90
18446;DHT22;9352;50.888;4.466;2022-12-07T03:13:46;5.00;99.90
18446;DHT22;9352;50.888;4.466;2022-12-07T03:16:19;5.00;99.90
18446;DHT22;9352;50.888;4.466;2022-12-07T03:18:51;5.00;99.90
18446;DHT22;9352;50.888;4.466;2022-12-07T03:21:21;5.00;99.90
18446;DHT22;9352;50.888;4.466;2022-12-07T03:23:52;5.00;99.90
18446;DHT22;9352;50.888;4.466;2022-12-07T03:26:22;5.10;99.90
18446;DHT22;9352;50.888;4.466;2022-12-07T03:28:54;5.20;99.90
18446;DHT22;9352;50.888;4.466;2022-12-07T03:31:26;5.30;99.90
18446;DHT22;9352;50.888;4.466;2022-12-07T03:33:59;5.20;99.90
18446;DHT22;9352;50.888;4.466;2022-12-07T03:36:31;5.20;99.90
18446;DHT22;9352;50.888;4.466;2022-12-07T03:39:03;5.20;99.90
18446;DHT22;9352;50.888;4.466;2022-12-07T03:41:33;5.10;99.90
18446;DHT22;9352;50.888;4.466;2022-12-07T03:44:01;5.10;99.90
18446;DHT22;9352;50.888;4.466;2022-12-07T03:46:36;5.10;99.90
18446;DHT22;9352;50.888;4.466;2022-12-07T03:49:08;5.00;99.90
18446;DHT22;9352;50.888;4.466;2022-12-07T03:51:42;4.90;99.90
18446;DHT22;9352;50.888;4.466;2022-12-07T03:54:17;4.90;99.90
18446;DHT22;9352;50.888;4.466;2022-12-07T03:56:46;4.80;99.90
18446;DHT22;9352;50.888;4.466;2022-12-07T03:59:14;4.80;99.90
18446;DHT22;9352;50.888;4.466;2022-12-07T04:01:44;4.70;99.90
18446;DHT22;9352;50.888;4.466;2022-12-07T04:04:12;4.70;99.90
18446;DHT22;9352;50.888;4.466;2022-12-07T04:06:38;4.60;99.90
18446;DHT22;9352;50.888;4.466;2022-12-07T04:09:05;4.60;99.90
18446;DHT22;9352;50.888;4.466;2022-12-07T04:11:32;4.60;99.90
18446;DHT22;9352;50.888;4.466;2022-12-07T04:13:59;4.60;99.90
18446;DHT22;9352;50.888;4.466;2022-12-07T04:16:46;4.50;99.90
18446;DHT22;9352;50.888;4.466;2022-12-07T04:19:13;4.50;99.90
18446;DHT22;9352;50.888;4.466;2022-12-07T04:21:40;4.50;99.90
18446;DHT22;9352;50.888;4.466;2022-12-07T04:24:07;4.40;99.90
18446;DHT22;9352;50.888;4.466;2022-12-07T04:26:34;4.40;99.90
18446;DHT22;9352;50.888;4.466;2022-12-07T04:29:01;4.40;99.90
18446;DHT22;9352;50.888;4.466;2022-12-07T04:31:28;4.40;99.90
18446;DHT22;9352;50.888;4.466;2022-12-07T04:33:56;4.40;99.90
18446;DHT22;9352;50.888;4.466;2022-12-07T04:36:23;4.40;99.90
18446;DHT22;9352;50.888;4.466;2022-12-07T04:38:52;4.50;99.90
18446;DHT22;9352;50.888;4.466;2022-12-07T04:41:19;4.50;99.90
18446;DHT22;9352;50.888;4.466;2022-12-07T04:43:52;4.60;99.90
18446;DHT22;9352;50.888;4.466;2022-12-07T04:46:19;4.60;99.90
18446;DHT22;9352;50.888;4.466;2022-12-07T04:48:46;4.60;99.90
18446;DHT22;9352;50.888;4.466;2022-12-07T04:51:16;4.60;99.90
18446;DHT22;9352;50.888;4.466;2022-12-07T04:53:45;4.60;99.90
18446;DHT22;9352;50.888;4.466;2022-12-07T04:56:11;4.60;99.90
18446;DHT22;9352;50.888;4.466;2022-12-07T04:58:38;4.60;99.90
18446;DHT22;9352;50.888;4.466;2022-12-07T05:01:05;4.60;99.90
18446;DHT22;9352;50.888;4.466;2022-12-07T05:03:32;4.60;99.90
18446;DHT22;9352;50.888;4.466;2022-12-07T05:05:59;4.60;99.90
18446;DHT22;9352;50.888;4.466;2022-12-07T05:08:27;4.60;99.90
18446;DHT22;9352;50.888;4.466;2022-12-07T05:10:54;4.70;99.90
18446;DHT22;9352;50.888;4.466;2022-12-07T05:13:21;4.60;99.90
18446;DHT22;9352;50.888;4.466;2022-12-07T05:15:48;4.60;99.90
18446;DHT22;9352;50.888;4.466;2022-12-07T05:18:15;4.60;99.90
18446;DHT22;9352;50.888;4.466;2022-12-07T05:20:43;4.60;99.90
18446;DHT22;9352;50.888;4.466;2022-12-07T05:23:11;4.60;99.90
18446;DHT22;9352;50.888;4.466;2022-12-07T05:25:39;4.70;99.90
18446;DHT22;9352;50.888;4.466;2022-12-07T05:28:06;4.80;99.90
18446;DHT22;9352;50.888;4.466;2022-12-07T05:30:33;4.90;99.90
18446;DHT22;9352;50.888;4.466;2022-12-07T05:33:00;4.90;99.90
18446;DHT22;9352;50.888;4.466;2022-12-07T05:35:28;5.00;99.90
18446;DHT22;9352;50.888;4.466;2022-12-07T05:37:55;5.00;99.90
18446;DHT22;9352;50.888;4.466;2022-12-07T05:40:22;5.10;99.90
18446;DHT22;9352;50.888;4.466;2022-12-07T05:42:51;5.10;99.90
18446;DHT22;9352;50.888;4.466;2022-12-07T05:45:18;5.10;99.90
18446;DHT22;9352;50.888;4.466;2022-12-07T05:47:44;5.20;99.90
18446;DHT22;9352;50.888;4.466;2022-12-07T05:50:11;5.20;99.90
18446;DHT22;9352;50.888;4.466;2022-12-07T05:52:38;5.20;99.90
18446;DHT22;9352;50.888;4.466;2022-12-07T05:55:06;5.20;99.90
18446;DHT22;9352;50.888;4.466;2022-12-07T05:57:33;5.20;99.90
18446;DHT22;9352;50.888;4.466;2022-12-07T06:00:02;5.20;99.90
18446;DHT22;9352;50.888;4.466;2022-12-07T06:02:29;5.20;99.90
18446;DHT22;9352;50.888;4.466;2022-12-07T06:04:55;5.20;99.90
18446;DHT22;9352;50.888;4.466;2022-12-07T06:07:22;5.30;99.90
18446;DHT22;9352;50.888;4.466;2022-12-07T06:09:49;5.30;99.90
18446;DHT22;9352;50.888;4.466;2022-12-07T06:12:16;5.30;99.90
18446;DHT22;9352;50.888;4.466;2022-12-07T06:15:02;5.30;99.90
18446;DHT22;9352;50.888;4.466;2022-12-07T06:17:29;5.40;99.90
18446;DHT22;9352;50.888;4.466;2022-12-07T06:19:56;5.50;99.90
18446;DHT22;9352;50.888;4.466;2022-12-07T06:22:23;5.40;99.90
18446;DHT22;9352;50.888;4.466;2022-12-07T06:24:50;5.40;99.90
18446;DHT22;9352;50.888;4.466;2022-12-07T06:27:19;5.40;99.90
18446;DHT22;9352;50.888;4.466;2022-12-07T06:29:46;5.40;99.90
18446;DHT22;9352;50.888;4.466;2022-12-07T06:32:14;5.40;99.90
18446;DHT22;9352;50.888;4.466;2022-12-07T06:34:42;5.30;99.90
18446;DHT22;9352;50.888;4.466;2022-12-07T06:37:08;5.30;99.90
18446;DHT22;9352;50.888;4.466;2022-12-07T06:39:35;5.30;99.90
18446;DHT22;9352;50.888;4.466;2022-12-07T06:42:02;5.30;99.90
18446;DHT22;9352;50.888;4.466;2022-12-07T06:44:29;5.30;99.90
18446;DHT22;9352;50.888;4.466;2022-12-07T06:46:56;5.30;99.90
18446;DHT22;9352;50.888;4.466;2022-12-07T06:49:24;5.30;99.90
18446;DHT22;9352;50.888;4.466;2022-12-07T06:51:51;5.40;99.90
18446;DHT22;9352;50.888;4.466;2022-12-07T06:54:18;5.40;99.90
18446;DHT22;9352;50.888;4.466;2022-12-07T06:56:45;5.40;99.90
18446;DHT22;9352;50.888;4.466;2022-12-07T06:59:12;5.40;99.90
18446;DHT22;9352;50.888;4.466;2022-12-07T07:01:39;5.50;99.90
18446;DHT22;9352;50.888;4.466;2022-12-07T07:04:06;5.50;99.90
18446;DHT22;9352;50.888;4.466;2022-12-07T07:06:34;5.50;99.90
18446;DHT22;9352;50.888;4.466;2022-12-07T07:09:01;5.40;99.90
18446;DHT22;9352;50.888;4.466;2022-12-07T07:11:28;5.40;99.90
18446;DHT22;9352;50.888;4.466;2022-12-07T07:13:55;5.40;99.90
18446;DHT22;9352;50.888;4.466;2022-12-07T07:16:27;5.40;99.90
18446;DHT22;9352;50.888;4.466;2022-12-07T07:18:54;5.30;99.90
18446;DHT22;9352;50.888;4.466;2022-12-07T07:21:21;5.30;99.90
18446;DHT22;9352;50.888;4.466;2022-12-07T07:23:49;5.30;99.90
18446;DHT22;9352;50.888;4.466;2022-12-07T07:26:17;5.20;99.90
18446;DHT22;9352;50.888;4.466;2022-12-07T07:28:44;5.20;99.90
18446;DHT22;9352;50.888;4.466;2022-12-07T07:31:11;5.20;99.90
18446;DHT22;9352;50.888;4.466;2022-12-07T07:33:38;5.20;99.90
18446;DHT22;9352;50.888;4.466;2022-12-07T07:36:06;5.10;99.90
18446;DHT22;9352;50.888;4.466;2022-12-07T07:38:33;5.20;99.90
18446;DHT22;9352;50.888;4.466;2022-12-07T07:41:01;5.10;99.90
18446;DHT22;9352;50.888;4.466;2022-12-07T07:43:28;5.00;99.90
18446;DHT22;9352;50.888;4.466;2022-12-07T07:45:55;5.00;99.90
18446;DHT22;9352;50.888;4.466;2022-12-07T07:48:22;4.90;99.90
18446;DHT22;9352;50.888;4.466;2022-12-07T07:50:50;4.90;99.90
18446;DHT22;9352;50.888;4.466;2022-12-07T07:53:17;4.90;99.90
18446;DHT22;9352;50.888;4.466;2022-12-07T07:55:50;4.90;99.90
18446;DHT22;9352;50.888;4.466;2022-12-07T07:58:19;4.80;99.90
18446;DHT22;9352;50.888;4.466;2022-12-07T08:00:46;4.80;99.90
18446;DHT22;9352;50.888;4.466;2022-12-07T08:03:13;4.80;99.90
18446;DHT22;9352;50.888;4.466;2022-12-07T08:05:40;4.80;99.90
18446;DHT22;9352;50.888;4.466;2022-12-07T08:08:07;4.70;99.90
18446;DHT22;9352;50.888;4.466;2022-12-07T08:10:34;4.70;99.90
18446;DHT22;9352;50.888;4.466;2022-12-07T08:13:02;4.70;99.90
18446;DHT22;9352;50.888;4.466;2022-12-07T08:15:41;4.60;99.90
18446;DHT22;9352;50.888;4.466;2022-12-07T08:18:09;4.70;99.90
18446;DHT22;9352;50.888;4.466;2022-12-07T08:20:37;4.70;99.90
18446;DHT22;9352;50.888;4.466;2022-12-07T08:23:05;4.60;99.90
18446;DHT22;9352;50.888;4.466;2022-12-07T08:25:33;4.60;99.90
18446;DHT22;9352;50.888;4.466;2022-12-07T08:28:00;4.60;99.90
18446;DHT22;9352;50.888;4.466;2022-12-07T08:30:27;4.60;99.90
18446;DHT22;9352;50.888;4.466;2022-12-07T08:32:56;4.60;99.90
18446;DHT22;9352;50.888;4.466;2022-12-07T08:35:24;4.60;99.90
18446;DHT22;9352;50.888;4.466;2022-12-07T08:37:51;4.70;99.90
18446;DHT22;9352;50.888;4.466;2022-12-07T08:40:18;4.70;99.90
18446;DHT22;9352;50.888;4.466;2022-12-07T08:42:48;4.70;99.90
18446;DHT22;9352;50.888;4.466;2022-12-07T08:45:16;4.80;99.90
18446;DHT22;9352;50.888;4.466;2022-12-07T08:47:45;4.90;99.90
18446;DHT22;9352;50.888;4.466;2022-12-07T08:50:15;5.00;99.90
18446;DHT22;9352;50.888;4.466;2022-12-07T08:52:43;5.10;99.90
18446;DHT22;9352;50.888;4.466;2022-12-07T08:55:11;5.20;99.90
18446;DHT22;9352;50.888;4.466;2022-12-07T08:57:39;5.40;99.90
18446;DHT22;9352;50.888;4.466;2022-12-07T09:00:09;5.60;99.90
18446;DHT22;9352;50.888;4.466;2022-12-07T09:02:36;5.80;99.90
18446;DHT22;9352;50.888;4.466;2022-12-07T09:05:03;6.00;99.90
18446;DHT22;9352;50.888;4.466;2022-12-07T09:07:32;6.10;99.90
18446;DHT22;9352;50.888;4.466;2022-12-07T09:10:00;6.20;99.90
18446;DHT22;9352;50.888;4.466;2022-12-07T09:12:27;6.30;99.90
18446;DHT22;9352;50.888;4.466;2022-12-07T09:14:54;6.40;99.90
18446;DHT22;9352;50.888;4.466;2022-12-07T09:17:21;6.50;99.90
18446;DHT22;9352;50.888;4.466;2022-12-07T09:19:48;6.50;99.90
18446;DHT22;9352;50.888;4.466;2022-12-07T09:22:14;6.60;99.90
18446;DHT22;9352;50.888;4.466;2022-12-07T09:24:43;6.60;99.90
18446;DHT22;9352;50.888;4.466;2022-12-07T09:27:11;6.60;99.90
18446;DHT22;9352;50.888;4.466;2022-12-07T09:29:37;6.60;99.90
18446;DHT22;9352;50.888;4.466;2022-12-07T09:32:05;6.60;99.90
18446;DHT22;9352;50.888;4.466;2022-12-07T09:34:32;6.60;99.90
18446;DHT22;9352;50.888;4.466;2022-12-07T09:37:00;6.70;99.90
18446;DHT22;9352;50.888;4.466;2022-12-07T09:39:28;6.60;99.90
18446;DHT22;9352;50.888;4.466;2022-12-07T09:41:57;6.50;99.90
18446;DHT22;9352;50.888;4.466;2022-12-07T09:44:26;6.60;99.90
18446;DHT22;9352;50.888;4.466;2022-12-07T09:46:55;6.60;99.90
18446;DHT22;9352;50.888;4.466;2022-12-07T09:49:24;6.60;99.90
18446;DHT22;9352;50.888;4.466;2022-12-07T09:52:01;6.60;99.90
18446;DHT22;9352;50.888;4.466;2022-12-07T09:54:29;6.60;99.90
18446;DHT22;9352;50.888;4.466;2022-12-07T09:56:58;6.70;99.90
18446;DHT22;9352;50.888;4.466;2022-12-07T09:59:25;6.70;99.90
18446;DHT22;9352;50.888;4.466;2022-12-07T10:01:52;6.80;99.90
18446;DHT22;9352;50.888;4.466;2022-12-07T10:04:22;6.90;99.90
18446;DHT22;9352;50.888;4.466;2022-12-07T10:06:50;7.00;99.90
18446;DHT22;9352;50.888;4.466;2022-12-07T10:09:19;7.00;99.90
18446;DHT22;9352;50.888;4.466;2022-12-07T10:12:01;7.10;99.90
18446;DHT22;9352;50.888;4.466;2022-12-07T10:14:30;7.10;99.90
18446;DHT22;9352;50.888;4.466;2022-12-07T10:16:57;7.20;99.90
18446;DHT22;9352;50.888;4.466;2022-12-07T10:19:27;7.30;99.90
18446;DHT22;9352;50.888;4.466;2022-12-07T10:22:07;7.40;99.90
18446;DHT22;9352;50.888;4.466;2022-12-07T10:24:36;7.50;99.90
18446;DHT22;9352;50.888;4.466;2022-12-07T10:27:17;7.70;99.90
18446;DHT22;9352;50.888;4.466;2022-12-07T10:29:48;7.80;99.90
18446;DHT22;9352;50.888;4.466;2022-12-07T10:32:29;7.80;99.90
18446;DHT22;9352;50.888;4.466;2022-12-07T10:35:19;7.80;99.90
18446;DHT22;9352;50.888;4.466;2022-12-07T10:37:47;7.80;99.90
18446;DHT22;9352;50.888;4.466;2022-12-07T10:40:27;7.70;99.90
18446;DHT22;9352;50.888;4.466;2022-12-07T10:43:03;7.70;99.90
18446;DHT22;9352;50.888;4.466;2022-12-07T10:45:30;7.60;99.90
18446;DHT22;9352;50.888;4.466;2022-12-07T10:48:03;7.50;99.90
18446;DHT22;9352;50.888;4.466;2022-12-07T10:50:52;7.40;99.90
18446;DHT22;9352;50.888;4.466;2022-12-07T10:53:37;7.50;99.90
18446;DHT22;9352;50.888;4.466;2022-12-07T10:56:29;7.50;99.90
18446;DHT22;9352;50.888;4.466;2022-12-07T10:59:27;7.40;99.90
18446;DHT22;9352;50.888;4.466;2022-12-07T11:02:02;7.40;99.90
18446;DHT22;9352;50.888;4.466;2022-12-07T11:04:43;7.40;99.90
18446;DHT22;9352;50.888;4.466;2022-12-07T11:07:18;7.50;99.90
18446;DHT22;9352;50.888;4.466;2022-12-07T11:10:04;7.50;99.90
18446;DHT22;9352;50.888;4.466;2022-12-07T11:12:53;7.60;99.90
18446;DHT22;9352;50.888;4.466;2022-12-07T11:15:26;7.70;99.90
18446;DHT22;9352;50.888;4.466;2022-12-07T11:18:01;7.90;99.90
18446;DHT22;9352;50.888;4.466;2022-12-07T11:20:43;7.90;99.90
18446;DHT22;9352;50.888;4.466;2022-12-07T11:23:18;8.00;99.90
18446;DHT22;9352;50.888;4.466;2022-12-07T11:25:53;7.90;99.90
18446;DHT22;9352;50.888;4.466;2022-12-07T11:28:30;7.80;99.90
18446;DHT22;9352;50.888;4.466;2022-12-07T11:31:10;7.80;99.90
18446;DHT22;9352;50.888;4.466;2022-12-07T11:33:45;7.80;99.90
18446;DHT22;9352;50.888;4.466;2022-12-07T11:36:33;7.80;99.90
18446;DHT22;9352;50.888;4.466;2022-12-07T11:39:11;7.80;99.90
18446;DHT22;9352;50.888;4.466;2022-12-07T11:41:42;7.80;99.90
18446;DHT22;9352;50.888;4.466;2022-12-07T11:44:24;7.70;99.90
18446;DHT22;9352;50.888;4.466;2022-12-07T11:46:59;7.60;99.90
18446;DHT22;9352;50.888;4.466;2022-12-07T11:49:37;7.60;99.90
18446;DHT22;9352;50.888;4.466;2022-12-07T11:52:12;7.60;99.90
18446;DHT22;9352;50.888;4.466;2022-12-07T11:54:42;7.60;99.90
18446;DHT22;9352;50.888;4.466;2022-12-07T11:57:16;7.60;99.90
18446;DHT22;9352;50.888;4.466;2022-12-07T11:59:49;7.70;99.90
18446;DHT22;9352;50.888;4.466;2022-12-07T12:02:22;7.70;99.90
18446;DHT22;9352;50.888;4.466;2022-12-07T12:04:57;8.00;99.90
18446;DHT22;9352;50.888;4.466;2022-12-07T12:07:27;8.40;99.90
18446;DHT22;9352;50.888;4.466;2022-12-07T12:09:57;8.60;99.90
18446;DHT22;9352;50.888;4.466;2022-12-07T12:12:56;8.80;99.90
18446;DHT22;9352;50.888;4.466;2022-12-07T12:15:42;8.90;99.90
18446;DHT22;9352;50.888;4.466;2022-12-07T12:18:48;8.90;99.90
18446;DHT22;9352;50.888;4.466;2022-12-07T12:21:23;8.90;99.90
18446;DHT22;9352;50.888;4.466;2022-12-07T12:23:57;8.90;99.90
18446;DHT22;9352;50.888;4.466;2022-12-07T12:26:27;8.80;99.90
18446;DHT22;9352;50.888;4.466;2022-12-07T12:28:57;8.70;99.90
18446;DHT22;9352;50.888;4.466;2022-12-07T12:31:34;8.60;99.90
18446;DHT22;9352;50.888;4.466;2022-12-07T12:34:30;8.50;99.90
18446;DHT22;9352;50.888;4.466;2022-12-07T12:36:57;8.30;99.90
18446;DHT22;9352;50.888;4.466;2022-12-07T12:39:25;8.10;99.90
18446;DHT22;9352;50.888;4.466;2022-12-07T12:41:57;8.10;99.90
18446;DHT22;9352;50.888;4.466;2022-12-07T12:45:11;8.10;99.90
18446;DHT22;9352;50.888;4.466;2022-12-07T12:47:55;8.00;99.90
18446;DHT22;9352;50.888;4.466;2022-12-07T12:50:28;8.00;99.90
18446;DHT22;9352;50.888;4.466;2022-12-07T12:53:16;8.00;99.90
18446;DHT22;9352;50.888;4.466;2022-12-07T12:56:11;8.00;99.90
18446;DHT22;9352;50.888;4.466;2022-12-07T12:58:44;8.10;99.90
18446;DHT22;9352;50.888;4.466;2022-12-07T13:01:41;8.10;99.90
18446;DHT22;9352;50.888;4.466;2022-12-07T13:04:22;8.10;99.90
18446;DHT22;9352;50.888;4.466;2022-12-07T13:06:52;8.30;99.90
18446;DHT22;9352;50.888;4.466;2022-12-07T13:09:23;8.30;99.90
18446;DHT22;9352;50.888;4.466;2022-12-07T13:11:58;8.30;99.90
18446;DHT22;9352;50.888;4.466;2022-12-07T13:14:40;8.30;99.90
18446;DHT22;9352;50.888;4.466;2022-12-07T13:17:08;8.20;99.90
18446;DHT22;9352;50.888;4.466;2022-12-07T13:19:57;8.10;99.90
18446;DHT22;9352;50.888;4.466;2022-12-07T13:22:42;8.20;99.90
18446;DHT22;9352;50.888;4.466;2022-12-07T13:25:12;8.30;99.90
18446;DHT22;9352;50.888;4.466;2022-12-07T13:27:41;8.50;99.90
18446;DHT22;9352;50.888;4.466;2022-12-07T13:30:14;8.60;99.90
18446;DHT22;9352;50.888;4.466;2022-12-07T13:32:42;8.60;99.90
18446;DHT22;9352;50.888;4.466;2022-12-07T13:35:30;8.60;99.90
18446;DHT22;9352;50.888;4.466;2022-12-07T13:38:00;8.60;99.90
18446;DHT22;9352;50.888;4.466;2022-12-07T13:40:28;8.70;99.90
18446;DHT22;9352;50.888;4.466;2022-12-07T13:42:59;8.70;99.90
18446;DHT22;9352;50.888;4.466;2022-12-07T13:45:28;8.70;99.90
18446;DHT22;9352;50.888;4.466;2022-12-07T13:48:16;8.70;99.90
18446;DHT22;9352;50.888;4.466;2022-12-07T13:50:52;8.80;99.90
18446;DHT22;9352;50.888;4.466;2022-12-07T13:53:21;9.00;99.90
18446;DHT22;9352;50.888;4.466;2022-12-07T13:55:48;9.00;99.90
18446;DHT22;9352;50.888;4.466;2022-12-07T13:58:15;9.00;99.90
18446;DHT22;9352;50.888;4.466;2022-12-07T14:00:43;8.90;99.90
18446;DHT22;9352;50.888;4.466;2022-12-07T14:03:28;8.70;99.90
18446;DHT22;9352;50.888;4.466;2022-12-07T14:06:12;8.60;99.90
18446;DHT22;9352;50.888;4.466;2022-12-07T14:08:41;8.50;99.90
18446;DHT22;9352;50.888;4.466;2022-12-07T14:11:12;8.20;99.90
18446;DHT22;9352;50.888;4.466;2022-12-07T14:13:45;8.00;99.90
18446;DHT22;9352;50.888;4.466;2022-12-07T14:16:24;7.60;99.90
18446;DHT22;9352;50.888;4.466;2022-12-07T14:18:53;7.30;99.90
18446;DHT22;9352;50.888;4.466;2022-12-07T14:21:22;7.10;99.90
18446;DHT22;9352;50.888;4.466;2022-12-07T14:24:10;7.00;99.90
18446;DHT22;9352;50.888;4.466;2022-12-07T14:26:38;6.90;99.90
18446;DHT22;9352;50.888;4.466;2022-12-07T14:29:35;6.90;99.90
18446;DHT22;9352;50.888;4.466;2022-12-07T14:32:21;6.90;99.90
18446;DHT22;9352;50.888;4.466;2022-12-07T14:35:00;7.00;99.90
18446;DHT22;9352;50.888;4.466;2022-12-07T14:37:29;7.00;99.90
18446;DHT22;9352;50.888;4.466;2022-12-07T14:39:57;6.90;99.90
18446;DHT22;9352;50.888;4.466;2022-12-07T14:42:27;7.00;99.90
18446;DHT22;9352;50.888;4.466;2022-12-07T14:44:55;6.90;99.90
18446;DHT22;9352;50.888;4.466;2022-12-07T14:47:23;6.90;99.90
18446;DHT22;9352;50.888;4.466;2022-12-07T14:49:50;6.80;99.90
18446;DHT22;9352;50.888;4.466;2022-12-07T14:52:19;6.80;99.90
18446;DHT22;9352;50.888;4.466;2022-12-07T14:54:46;6.80;99.90
18446;DHT22;9352;50.888;4.466;2022-12-07T14:57:15;6.80;99.90
18446;DHT22;9352;50.888;4.466;2022-12-07T14:59:41;6.80;99.90
18446;DHT22;9352;50.888;4.466;2022-12-07T15:02:10;6.80;99.90
18446;DHT22;9352;50.888;4.466;2022-12-07T15:04:37;6.80;99.90
18446;DHT22;9352;50.888;4.466;2022-12-07T15:07:10;6.90;99.90
18446;DHT22;9352;50.888;4.466;2022-12-07T15:09:39;6.90;99.90
18446;DHT22;9352;50.888;4.466;2022-12-07T15:12:06;6.90;99.90
18446;DHT22;9352;50.888;4.466;2022-12-07T15:14:34;6.90;99.90
18446;DHT22;9352;50.888;4.466;2022-12-07T15:17:01;6.90;99.90
18446;DHT22;9352;50.888;4.466;2022-12-07T15:19:28;6.90;99.90
18446;DHT22;9352;50.888;4.466;2022-12-07T15:21:55;6.80;99.90
18446;DHT22;9352;50.888;4.466;2022-12-07T15:24:23;6.80;99.90
18446;DHT22;9352;50.888;4.466;2022-12-07T15:26:50;6.90;99.90
18446;DHT22;9352;50.888;4.466;2022-12-07T15:29:20;6.90;99.90
18446;DHT22;9352;50.888;4.466;2022-12-07T15:31:51;6.80;99.90
18446;DHT22;9352;50.888;4.466;2022-12-07T15:34:18;6.80;99.90
18446;DHT22;9352;50.888;4.466;2022-12-07T15:36:45;6.80;99.90
18446;DHT22;9352;50.888;4.466;2022-12-07T15:39:12;6.80;99.90
18446;DHT22;9352;50.888;4.466;2022-12-07T15:41:38;6.80;99.90
18446;DHT22;9352;50.888;4.466;2022-12-07T15:44:05;6.80;99.90
18446;DHT22;9352;50.888;4.466;2022-12-07T15:46:51;6.80;99.90
18446;DHT22;9352;50.888;4.466;2022-12-07T15:49:19;6.80;99.90
18446;DHT22;9352;50.888;4.466;2022-12-07T15:51:46;6.80;99.90
18446;DHT22;9352;50.888;4.466;2022-12-07T15:54:19;6.80;99.90
18446;DHT22;9352;50.888;4.466;2022-12-07T15:56:46;6.80;99.90
18446;DHT22;9352;50.888;4.466;2022-12-07T15:59:14;6.80;99.90
18446;DHT22;9352;50.888;4.466;2022-12-07T16:01:41;6.70;99.90
18446;DHT22;9352;50.888;4.466;2022-12-07T16:04:09;6.70;99.90
18446;DHT22;9352;50.888;4.466;2022-12-07T16:06:36;6.70;99.90
18446;DHT22;9352;50.888;4.466;2022-12-07T16:09:04;6.70;99.90
18446;DHT22;9352;50.888;4.466;2022-12-07T16:11:31;6.70;99.90
18446;DHT22;9352;50.888;4.466;2022-12-07T16:13:58;6.70;99.90
18446;DHT22;9352;50.888;4.466;2022-12-07T16:16:25;6.60;99.90
18446;DHT22;9352;50.888;4.466;2022-12-07T16:18:52;6.60;99.90
18446;DHT22;9352;50.888;4.466;2022-12-07T16:21:21;6.60;99.90
18446;DHT22;9352;50.888;4.466;2022-12-07T16:23:48;6.60;99.90
18446;DHT22;9352;50.888;4.466;2022-12-07T16:26:16;6.60;99.90
18446;DHT22;9352;50.888;4.466;2022-12-07T16:28:43;6.60;99.90
18446;DHT22;9352;50.888;4.466;2022-12-07T16:31:12;6.60;99.90
18446;DHT22;9352;50.888;4.466;2022-12-07T16:33:40;6.60;99.90
18446;DHT22;9352;50.888;4.466;2022-12-07T16:36:09;6.60;99.90